Terminal Aerodrome Forecast
Issued by NWS Austin/San Antonio, TX

Home | Current Version | Previous Version | Text Only | Print | Product List | Glossary On
Versions: 1 2 3 4 5 6 7 8 9 10 11 12 13 14 15 16 17 18 19 20 21
000
FTUS44 KEWX 290140 AAC
TAFSAT
TAF AMD
KSAT 290140Z 2902/3006 07007KT P6SM -TSRA FEW070CB OVC100
     FM290230 VRB03KT P6SM VCSH SCT015 BKN060
     FM290800 05006KT P6SM BKN012 OVC035
     FM291700 12007KT P6SM BKN035
     FM300300 12010KT P6SM BKN011=

USA.gov is the U.S. government's official web portal to all federal, state and local government web resources and services.